Time;durP1;ratioP1;P1;durP2;ratioP2;P2;SDS_P1;SDS_P2;PMS_P1;PMS_P2;Temp;Humidity;BMP_temperature;BMP_pressure;BME280_temperature;BME280_humidity;BME280_pressure;Samples;Min_cycle;Max_cycle;Signal;HPM_P1;HPM_P2
2023/04/12 00:00:20;;;;;;;;;;;;;;;2.73;100.00;98015.41;4931668;29;19918;-83
2023/04/12 00:02:45;;;;;;;;;;;;;;;2.72;100.00;98008.56;4916655;29;20550;-83
2023/04/12 00:05:12;;;;;;;;;;;;;;;2.67;100.00;98008.22;4928052;29;19923;-83
2023/04/12 00:07:38;;;;;;;;;;;;;;;2.60;100.00;97995.78;4917096;29;19953;-84
2023/04/12 00:10:08;;;;;;;;;;;;;;;2.56;100.00;97996.25;4899628;29;19955;-83
2023/04/12 00:12:33;;;;;;;;;;;;;;;2.50;100.00;97987.22;4898152;29;20292;-83
2023/04/12 00:15:00;;;;;;;;;;;;;;;2.45;100.00;97986.91;4914124;29;19967;-84
2023/04/12 00:17:26;;;;;;;;;;;;;;;2.40;100.00;97987.34;4917439;29;19926;-83
2023/04/12 00:19:51;;;;;;;;;;;;;;;2.34;100.00;97988.75;4916032;29;19927;-83
2023/04/12 00:22:17;;;;;;;;;;;;;;;2.29;100.00;97985.81;4916649;29;19923;-83
2023/04/12 00:24:43;;;;;;;;;;;;;;;2.27;100.00;97995.56;4947601;29;19962;-83
2023/04/12 00:27:08;;;;;;;;;;;;;;;2.26;100.00;97993.13;4916122;29;19927;-83
2023/04/12 00:29:35;;;;;;;;;;;;;;;2.22;100.00;97993.41;4931940;29;20372;-83
2023/04/12 00:32:02;;;;;;;;;;;;;;;2.16;100.00;97980.16;4916340;29;19919;-83
2023/04/12 00:34:29;;;;;;;;;;;;;;;2.10;100.00;97984.22;4931619;29;19919;-84
2023/04/12 00:36:55;;;;;;;;;;;;;;;2.05;100.00;97974.25;4946389;29;19926;-79
2023/04/12 00:39:21;;;;;;;;;;;;;;;2.03;100.00;97972.72;4928448;29;20404;-79
2023/04/12 00:41:47;;;;;;;;;;;;;;;2.01;100.00;97975.50;4915092;29;19931;-83
2023/04/12 00:44:16;;;;;;;;;;;;;;;2.00;100.00;97965.22;4925433;29;19919;-83
2023/04/12 00:46:42;;;;;;;;;;;;;;;2.00;100.00;97965.22;4914058;29;19923;-83
2023/04/12 00:49:08;;;;;;;;;;;;;;;2.00;100.00;97957.41;4896478;29;19923;-83
2023/04/12 00:51:36;;;;;;;;;;;;;;;1.97;100.00;97956.75;4931034;29;20303;-83
2023/04/12 00:54:03;;;;;;;;;;;;;;;1.95;100.00;97958.69;4898825;29;20380;-84
2023/04/12 00:56:29;;;;;;;;;;;;;;;1.91;100.00;97959.13;4930636;29;19919;-83
2023/04/12 00:58:55;;;;;;;;;;;;;;;1.91;100.00;97951.31;4911003;29;20014;-83
2023/04/12 01:01:21;;;;;;;;;;;;;;;1.91;100.00;97957.31;4945760;28;19962;-83
2023/04/12 01:03:51;;;;;;;;;;;;;;;1.95;100.00;97944.81;4899024;29;20006;-84
2023/04/12 01:06:25;;;;;;;;;;;;;;;1.97;100.00;97942.91;4917782;29;19959;-83
2023/04/12 01:08:54;;;;;;;;;;;;;;;2.00;100.00;97928.75;4914211;29;20018;-83
2023/04/12 01:11:20;;;;;;;;;;;;;;;2.02;100.00;97932.84;4914441;29;20379;-84
2023/04/12 01:13:46;;;;;;;;;;;;;;;2.01;100.00;97931.19;4920613;29;19927;-83
2023/04/12 01:16:25;;;;;;;;;;;;;;;2.01;100.00;97940.81;4896063;29;19923;-83
2023/04/12 01:18:56;;;;;;;;;;;;;;;1.99;100.00;97954.00;4892533;29;19928;-84
2023/04/12 01:21:30;;;;;;;;;;;;;;;1.98;100.00;97963.59;4912766;29;19925;-83
2023/04/12 01:23:55;;;;;;;;;;;;;;;1.96;100.00;97936.03;4929524;29;19923;-83
2023/04/12 01:26:33;;;;;;;;;;;;;;;1.85;100.00;97940.53;4917313;29;19926;-82
2023/04/12 01:29:02;;;;;;;;;;;;;;;1.75;100.00;97926.78;4919408;29;20332;-82
2023/04/12 01:31:30;;;;;;;;;;;;;;;1.65;100.00;97924.25;4928746;29;20014;-82
2023/04/12 01:33:56;;;;;;;;;;;;;;;1.58;100.00;97904.97;4913361;29;20288;-82
2023/04/12 01:36:23;;;;;;;;;;;;;;;1.53;100.00;97904.63;4930921;29;19929;-82
2023/04/12 01:38:50;;;;;;;;;;;;;;;1.54;100.00;97898.44;4934340;29;20392;-82
2023/04/12 01:41:16;;;;;;;;;;;;;;;1.56;100.00;97879.09;4915379;29;20014;-79
2023/04/12 01:43:43;;;;;;;;;;;;;;;1.57;100.00;97859.91;4914861;29;19919;-79
2023/04/12 01:46:10;;;;;;;;;;;;;;;1.62;100.00;97851.66;4931394;29;19947;-83
2023/04/12 01:48:37;;;;;;;;;;;;;;;1.65;100.00;97853.13;4917503;29;19919;-83
2023/04/12 01:51:13;;;;;;;;;;;;;;;1.67;100.00;97849.38;4904773;29;20585;-83
2023/04/12 01:53:44;;;;;;;;;;;;;;;1.67;100.00;97848.59;4920155;29;19930;-83
2023/04/12 01:56:10;;;;;;;;;;;;;;;1.67;100.00;97843.38;4915412;29;19934;-82
2023/04/12 01:58:37;;;;;;;;;;;;;;;1.68;100.00;97845.00;4922278;29;19926;-83
2023/04/12 02:01:04;;;;;;;;;;;;;;;1.67;100.00;97841.56;4919037;29;20291;-83
2023/04/12 02:03:30;;;;;;;;;;;;;;;1.67;100.00;97825.94;4909134;29;19991;-83
2023/04/12 02:05:57;;;;;;;;;;;;;;;1.66;100.00;97821.72;4915044;29;19982;-83
2023/04/12 02:08:23;;;;;;;;;;;;;;;1.68;100.00;97818.97;4916241;29;19919;-83
2023/04/12 02:10:50;;;;;;;;;;;;;;;1.67;100.00;97822.53;4925785;29;19933;-83
2023/04/12 02:13:17;;;;;;;;;;;;;;;1.66;100.00;97813.91;4925156;29;19915;-83
2023/04/12 02:15:43;;;;;;;;;;;;;;;1.63;100.00;97805.56;4915466;29;20454;-80
2023/04/12 02:18:08;;;;;;;;;;;;;;;1.63;100.00;97818.59;4941736;29;20330;-79
2023/04/12 02:20:34;;;;;;;;;;;;;;;1.63;100.00;97815.97;4947179;28;19914;-79
2023/04/12 02:23:01;;;;;;;;;;;;;;;1.62;100.00;97809.97;4932984;29;19915;-83
2023/04/12 02:25:26;;;;;;;;;;;;;;;1.61;100.00;97806.56;4923162;29;19966;-83
2023/04/12 02:27:52;;;;;;;;;;;;;;;1.63;100.00;97798.59;4909137;29;19923;-83
2023/04/12 02:30:19;;;;;;;;;;;;;;;1.66;100.00;97787.03;4892545;29;19981;-82
2023/04/12 02:32:50;;;;;;;;;;;;;;;1.69;100.00;97787.56;4942241;28;20289;-83
2023/04/12 02:35:23;;;;;;;;;;;;;;;1.70;100.00;97762.34;4922324;29;19922;-82
2023/04/12 02:37:53;;;;;;;;;;;;;;;1.68;100.00;97753.84;4916474;29;20398;-82
2023/04/12 02:40:21;;;;;;;;;;;;;;;1.65;100.00;97748.97;4915705;29;19918;-81
2023/04/12 02:42:47;;;;;;;;;;;;;;;1.61;100.00;97738.03;4916095;29;20002;-82
2023/04/12 02:45:13;;;;;;;;;;;;;;;1.60;100.00;97721.59;4929005;29;20009;-82
2023/04/12 02:47:40;;;;;;;;;;;;;;;1.60;100.00;97719.00;4942861;28;19981;-82
2023/04/12 02:50:07;;;;;;;;;;;;;;;1.59;100.00;97719.16;4928694;29;20375;-82
2023/04/12 02:52:42;;;;;;;;;;;;;;;1.60;100.00;97708.59;4921935;29;19926;-82
2023/04/12 02:55:09;;;;;;;;;;;;;;;1.59;100.00;97687.91;4898002;29;20252;-82
2023/04/12 02:57:35;;;;;;;;;;;;;;;1.57;100.00;97687.25;4906752;29;19915;-82
2023/04/12 03:00:08;;;;;;;;;;;;;;;1.55;100.00;97679.59;4936173;29;19915;-82
2023/04/12 03:02:41;;;;;;;;;;;;;;;1.52;100.00;97672.09;4932212;29;19927;-82
2023/04/12 03:05:11;;;;;;;;;;;;;;;1.50;100.00;97650.59;4920105;29;20027;-82
2023/04/12 03:07:40;;;;;;;;;;;;;;;1.51;100.00;97641.84;4922046;29;19924;-82
2023/04/12 03:10:08;;;;;;;;;;;;;;;1.46;100.00;97644.06;4926393;29;20451;-82
2023/04/12 03:12:39;;;;;;;;;;;;;;;1.45;100.00;97637.25;4936812;29;20371;-82
2023/04/12 03:15:28;;;;;;;;;;;;;;;1.42;100.00;97633.16;4922902;29;19922;-83
2023/04/12 03:17:54;;;;;;;;;;;;;;;1.40;100.00;97610.88;4916992;29;19921;-82
2023/04/12 03:20:27;;;;;;;;;;;;;;;1.42;100.00;97601.13;4932174;29;19942;-83
2023/04/12 03:23:00;;;;;;;;;;;;;;;1.45;100.00;97587.78;4933726;29;20633;-83
2023/04/12 03:25:28;;;;;;;;;;;;;;;1.46;100.00;97579.00;4899647;29;20571;-82
2023/04/12 03:27:58;;;;;;;;;;;;;;;1.48;100.00;97567.44;4894024;29;19977;-82
2023/04/12 03:30:34;;;;;;;;;;;;;;;1.50;100.00;97549.06;4924948;29;19919;-83
2023/04/12 03:33:00;;;;;;;;;;;;;;;1.52;100.00;97526.31;4922310;29;19967;-82
2023/04/12 03:35:26;;;;;;;;;;;;;;;1.53;100.00;97506.31;4917711;29;19930;-83
2023/04/12 03:37:52;;;;;;;;;;;;;;;1.55;100.00;97510.38;4886121;29;19966;-83
2023/04/12 03:40:18;;;;;;;;;;;;;;;1.57;100.00;97497.19;4926644;29;19925;-83
2023/04/12 03:42:53;;;;;;;;;;;;;;;1.59;100.00;97495.25;4927518;29;20418;-83
2023/04/12 03:45:18;;;;;;;;;;;;;;;1.59;100.00;97490.84;4917709;29;20014;-83
2023/04/12 03:47:49;;;;;;;;;;;;;;;1.59;100.00;97480.44;4915589;29;19923;-84
2023/04/12 03:50:18;;;;;;;;;;;;;;;1.58;100.00;97457.97;4922103;29;20014;-84
2023/04/12 03:52:51;;;;;;;;;;;;;;;1.61;100.00;97451.63;4903100;29;19915;-84
2023/04/12 03:55:17;;;;;;;;;;;;;;;1.64;100.00;97432.28;4902247;29;20397;-84
2023/04/12 03:57:43;;;;;;;;;;;;;;;1.64;100.00;97425.25;4929795;29;19915;-84
2023/04/12 04:00:11;;;;;;;;;;;;;;;1.63;100.00;97421.03;4916623;29;19914;-84
2023/04/12 04:03:02;;;;;;;;;;;;;;;1.64;100.00;97414.84;4939261;29;20275;-83
2023/04/12 04:05:30;;;;;;;;;;;;;;;1.64;100.00;97409.66;4913306;29;19915;-83
2023/04/12 04:08:01;;;;;;;;;;;;;;;1.65;100.00;97394.84;4924835;29;20357;-84
2023/04/12 04:10:32;;;;;;;;;;;;;;;1.68;100.00;97384.09;4944104;28;19922;-84
2023/04/12 04:12:58;;;;;;;;;;;;;;;1.71;100.00;97378.56;4931595;29;19914;-83
2023/04/12 04:15:24;;;;;;;;;;;;;;;1.72;100.00;97365.38;4923126;29;19921;-84
2023/04/12 04:17:50;;;;;;;;;;;;;;;1.75;100.00;97351.25;4917358;29;19919;-83
2023/04/12 04:20:18;;;;;;;;;;;;;;;1.75;100.00;97343.44;4920150;29;19921;-84
2023/04/12 04:22:52;;;;;;;;;;;;;;;1.77;100.00;97323.22;4936696;29;20189;-84
2023/04/12 04:25:18;;;;;;;;;;;;;;;1.79;100.00;97310.84;4906290;29;19919;-84
2023/04/12 04:27:49;;;;;;;;;;;;;;;1.78;100.00;97303.22;4916253;29;20287;-78
2023/04/12 04:30:15;;;;;;;;;;;;;;;1.75;100.00;97283.53;4945974;28;19915;-78
2023/04/12 04:32:44;;;;;;;;;;;;;;;1.64;100.00;97271.66;4920175;29;19969;-83
2023/04/12 04:35:15;;;;;;;;;;;;;;;1.61;100.00;97253.75;4935447;29;19918;-84
2023/04/12 04:37:53;;;;;;;;;;;;;;;1.59;100.00;97264.34;4924371;29;19919;-83
2023/04/12 04:40:20;;;;;;;;;;;;;;;1.60;100.00;97241.72;4950211;28;19925;-84
2023/04/12 04:42:53;;;;;;;;;;;;;;;1.61;100.00;97231.16;4950612;28;20036;-84
2023/04/12 04:45:25;;;;;;;;;;;;;;;1.65;100.00;97218.63;4940155;28;19919;-84
2023/04/12 04:47:54;;;;;;;;;;;;;;;1.66;100.00;97207.22;4933944;29;20403;-84
2023/04/12 04:50:20;;;;;;;;;;;;;;;1.74;100.00;97190.75;4932686;29;19923;-83
2023/04/12 04:52:52;;;;;;;;;;;;;;;1.73;100.00;97176.13;4937921;29;19934;-83
2023/04/12 04:55:23;;;;;;;;;;;;;;;1.77;100.00;97153.97;4933677;29;19918;-83
2023/04/12 04:57:49;;;;;;;;;;;;;;;1.78;100.00;97139.16;4932170;29;19918;-84
2023/04/12 05:00:17;;;;;;;;;;;;;;;1.74;100.00;97123.06;4914860;29;20010;-83
2023/04/12 05:02:47;;;;;;;;;;;;;;;1.78;100.00;97110.50;4914521;29;19998;-83
2023/04/12 05:05:24;;;;;;;;;;;;;;;1.83;100.00;97098.59;4912452;29;20009;-84
2023/04/12 05:07:56;;;;;;;;;;;;;;;1.90;100.00;97083.09;4945605;28;19966;-84
2023/04/12 05:10:22;;;;;;;;;;;;;;;1.92;100.00;97082.91;4923437;29;19922;-84
2023/04/12 05:12:49;;;;;;;;;;;;;;;1.96;100.00;97063.34;4925157;29;19931;-84
2023/04/12 05:15:14;;;;;;;;;;;;;;;1.97;100.00;97042.38;4908210;29;19986;-83
2023/04/12 05:17:40;;;;;;;;;;;;;;;2.02;100.00;97036.63;4920557;29;19922;-83
2023/04/12 05:20:06;;;;;;;;;;;;;;;2.10;100.00;97033.94;4932191;29;20426;-84
2023/04/12 05:22:32;;;;;;;;;;;;;;;2.11;100.00;97021.75;4911015;29;19993;-84
2023/04/12 05:24:58;;;;;;;;;;;;;;;2.14;100.00;97004.94;4917415;29;19983;-83
2023/04/12 05:27:28;;;;;;;;;;;;;;;2.15;100.00;96976.09;4891807;29;19923;-83
2023/04/12 05:29:55;;;;;;;;;;;;;;;2.16;100.00;96966.50;4906414;29;20326;-82
2023/04/12 05:32:25;;;;;;;;;;;;;;;2.16;100.00;96956.06;4934696;29;19915;-83
2023/04/12 05:34:51;;;;;;;;;;;;;;;2.15;100.00;96946.66;4945602;28;19986;-82
2023/04/12 05:37:18;;;;;;;;;;;;;;;2.25;100.00;96930.75;4920940;29;20520;-82
2023/04/12 05:39:43;;;;;;;;;;;;;;;2.23;100.00;96917.88;4920778;29;19915;-82
2023/04/12 05:42:10;;;;;;;;;;;;;;;2.26;100.00;96914.94;4929787;29;19923;-82
2023/04/12 05:44:37;;;;;;;;;;;;;;;2.30;100.00;96902.34;4930385;29;19915;-82
2023/04/12 05:47:04;;;;;;;;;;;;;;;2.25;100.00;96889.88;4921616;29;20011;-83
2023/04/12 05:49:30;;;;;;;;;;;;;;;2.27;100.00;96882.69;4935914;29;20379;-82
2023/04/12 05:51:57;;;;;;;;;;;;;;;2.33;100.00;96874.16;4905609;29;19923;-84
2023/04/12 05:54:24;;;;;;;;;;;;;;;2.34;100.00;96865.31;4928119;29;20469;-82
2023/04/12 05:56:54;;;;;;;;;;;;;;;2.32;100.00;96856.09;4925065;29;19916;-83
2023/04/12 05:59:21;;;;;;;;;;;;;;;2.38;100.00;96849.31;4916138;29;19915;-83
2023/04/12 06:01:47;;;;;;;;;;;;;;;2.39;100.00;96837.94;4929810;29;20313;-84
2023/04/12 06:04:14;;;;;;;;;;;;;;;2.40;100.00;96829.94;4924249;29;19915;-83
2023/04/12 06:06:39;;;;;;;;;;;;;;;2.38;100.00;96828.47;4929141;29;20411;-83
2023/04/12 06:09:05;;;;;;;;;;;;;;;2.30;100.00;96818.97;4919913;29;20066;-83
2023/04/12 06:11:34;;;;;;;;;;;;;;;2.25;100.00;96822.13;4924621;29;19926;-82
2023/04/12 06:14:01;;;;;;;;;;;;;;;2.19;100.00;96821.03;4905376;29;20026;-82
2023/04/12 06:16:28;;;;;;;;;;;;;;;2.09;100.00;96816.09;4936617;28;20020;-82
2023/04/12 06:18:53;;;;;;;;;;;;;;;1.98;100.00;96822.56;4894921;29;19915;-82
2023/04/12 06:21:19;;;;;;;;;;;;;;;1.82;100.00;96805.31;4892976;29;20053;-82
2023/04/12 06:23:45;;;;;;;;;;;;;;;1.69;100.00;96807.75;4898027;29;19922;-82
2023/04/12 06:26:11;;;;;;;;;;;;;;;1.61;100.00;96806.00;4939579;28;19927;-82
2023/04/12 06:28:37;;;;;;;;;;;;;;;1.57;100.00;96802.97;4904925;29;19966;-81
2023/04/12 06:31:03;;;;;;;;;;;;;;;1.57;100.00;96794.34;4901526;29;19914;-79
2023/04/12 06:33:35;;;;;;;;;;;;;;;1.60;100.00;96786.19;4930617;28;19922;-79
2023/04/12 06:36:04;;;;;;;;;;;;;;;1.66;100.00;96787.25;4889349;29;19915;-79
2023/04/12 06:38:29;;;;;;;;;;;;;;;1.68;100.00;96790.50;4899799;29;19927;-79
2023/04/12 06:40:55;;;;;;;;;;;;;;;1.66;100.00;96784.63;4907087;29;19915;-81
2023/04/12 06:43:21;;;;;;;;;;;;;;;1.66;100.00;96789.84;4894840;29;19915;-81
2023/04/12 06:45:48;;;;;;;;;;;;;;;1.64;100.00;96789.25;4927239;29;19934;-80
2023/04/12 06:48:14;;;;;;;;;;;;;;;1.67;100.00;96775.88;4915128;29;19949;-79
2023/04/12 06:50:40;;;;;;;;;;;;;;;1.65;100.00;96780.44;4905754;29;19916;-79
2023/04/12 06:53:06;;;;;;;;;;;;;;;1.61;100.00;96769.56;4923905;29;20511;-81
2023/04/12 06:55:32;;;;;;;;;;;;;;;1.60;100.00;96773.97;4911886;29;19954;-81
2023/04/12 06:57:57;;;;;;;;;;;;;;;1.56;100.00;96777.91;4939245;28;19922;-81
2023/04/12 07:00:23;;;;;;;;;;;;;;;1.52;100.00;96775.84;4920647;29;19915;-81
2023/04/12 07:02:48;;;;;;;;;;;;;;;1.52;100.00;96773.22;4924003;29;19927;-82
2023/04/12 07:05:14;;;;;;;;;;;;;;;1.56;100.00;96774.50;4921715;29;19966;-81
2023/04/12 07:07:40;;;;;;;;;;;;;;;1.58;100.00;96778.53;4905382;29;20056;-82
2023/04/12 07:10:06;;;;;;;;;;;;;;;1.56;100.00;96767.50;4926038;29;19981;-82
2023/04/12 07:12:32;;;;;;;;;;;;;;;1.52;100.00;96778.44;4927491;29;19927;-82
2023/04/12 07:14:58;;;;;;;;;;;;;;;1.53;100.00;96780.84;4935104;28;20014;-82
2023/04/12 07:17:25;;;;;;;;;;;;;;;1.53;100.00;96783.47;4919926;29;20014;-82
2023/04/12 07:19:54;;;;;;;;;;;;;;;1.56;100.00;96790.91;4905044;29;19926;-82
2023/04/12 07:22:19;;;;;;;;;;;;;;;1.60;100.00;96787.00;4903656;29;19984;-82
2023/04/12 07:24:45;;;;;;;;;;;;;;;1.64;100.00;96794.44;4908608;29;20392;-82
2023/04/12 07:27:11;;;;;;;;;;;;;;;1.65;100.00;96794.25;4906371;29;20042;-82
2023/04/12 07:29:36;;;;;;;;;;;;;;;1.74;100.00;96794.97;4900835;29;19922;-82
2023/04/12 07:32:03;;;;;;;;;;;;;;;1.86;100.00;96798.75;4903074;29;19926;-82
2023/04/12 07:34:29;;;;;;;;;;;;;;;1.92;100.00;96804.25;4903860;29;19929;-82
2023/04/12 07:36:54;;;;;;;;;;;;;;;2.00;100.00;96809.38;4914499;29;19919;-82
2023/04/12 07:39:20;;;;;;;;;;;;;;;2.02;100.00;96812.63;4873141;29;19927;-82
2023/04/12 07:41:47;;;;;;;;;;;;;;;2.04;100.00;96815.81;4875538;29;20586;-82
2023/04/12 07:44:12;;;;;;;;;;;;;;;2.15;100.00;96832.81;4925512;29;20313;-82
2023/04/12 07:46:38;;;;;;;;;;;;;;;2.21;100.00;96834.69;4922492;29;19970;-82
2023/04/12 07:49:04;;;;;;;;;;;;;;;2.27;100.00;96833.16;4905632;29;19919;-82
2023/04/12 07:51:31;;;;;;;;;;;;;;;2.35;100.00;96840.91;4919490;29;20396;-82
2023/04/12 07:53:57;;;;;;;;;;;;;;;2.51;100.00;96841.69;4895567;29;19924;-83
2023/04/12 07:56:22;;;;;;;;;;;;;;;2.57;100.00;96854.00;4908162;29;20492;-82
2023/04/12 07:58:48;;;;;;;;;;;;;;;2.71;100.00;96851.53;4912026;29;20426;-82
2023/04/12 08:01:14;;;;;;;;;;;;;;;2.90;100.00;96863.19;4918637;29;19931;-82
2023/04/12 08:03:40;;;;;;;;;;;;;;;3.05;100.00;96865.75;4910186;29;19919;-82
2023/04/12 08:06:06;;;;;;;;;;;;;;;3.15;100.00;96875.09;4941243;28;19925;-82
2023/04/12 08:08:32;;;;;;;;;;;;;;;3.22;100.00;96878.56;4912927;29;19979;-83
2023/04/12 08:10:57;;;;;;;;;;;;;;;3.19;100.00;96890.19;4931456;29;20009;-83
2023/04/12 08:13:23;;;;;;;;;;;;;;;3.33;100.00;96891.13;4911884;29;19927;-82
2023/04/12 08:15:48;;;;;;;;;;;;;;;3.38;100.00;96908.03;4923086;29;19975;-83
2023/04/12 08:18:14;;;;;;;;;;;;;;;3.42;100.00;96920.53;4934964;29;20033;-83
2023/04/12 08:20:40;;;;;;;;;;;;;;;3.35;100.00;96925.69;4926550;29;19919;-84
2023/04/12 08:23:06;;;;;;;;;;;;;;;3.28;100.00;96924.00;4931425;29;19941;-83
2023/04/12 08:25:32;;;;;;;;;;;;;;;3.21;100.00;96948.22;4925928;29;19923;-83
2023/04/12 08:27:58;;;;;;;;;;;;;;;3.26;100.00;96963.34;4921102;29;19922;-83
2023/04/12 08:30:25;;;;;;;;;;;;;;;3.21;100.00;96957.84;4905903;29;19977;-84
2023/04/12 08:32:54;;;;;;;;;;;;;;;3.27;100.00;96961.53;4939817;29;20017;-83
2023/04/12 08:35:21;;;;;;;;;;;;;;;3.32;100.00;96980.06;4936334;29;19919;-83
2023/04/12 08:37:46;;;;;;;;;;;;;;;3.37;100.00;96984.72;4915638;29;20002;-84
2023/04/12 08:40:12;;;;;;;;;;;;;;;3.54;100.00;97001.78;4916712;29;20377;-83
2023/04/12 08:42:38;;;;;;;;;;;;;;;3.70;100.00;97007.78;4924868;29;19927;-83
2023/04/12 08:45:07;;;;;;;;;;;;;;;3.77;100.00;97023.50;4930020;28;19954;-83
2023/04/12 08:47:35;;;;;;;;;;;;;;;3.74;100.00;97027.31;4923225;29;19931;-83
2023/04/12 08:50:02;;;;;;;;;;;;;;;3.89;100.00;97029.88;4895027;29;19919;-83
2023/04/12 08:52:28;;;;;;;;;;;;;;;3.95;100.00;97038.78;4924502;29;19919;-83
2023/04/12 08:54:54;;;;;;;;;;;;;;;4.03;100.00;97058.75;4932799;29;19965;-84
2023/04/12 08:57:20;;;;;;;;;;;;;;;4.08;100.00;97062.41;4929547;29;19944;-83
2023/04/12 08:59:49;;;;;;;;;;;;;;;4.11;100.00;97076.91;4931401;29;19927;-83
2023/04/12 09:02:14;;;;;;;;;;;;;;;4.12;100.00;97085.56;4920813;29;19923;-79
2023/04/12 09:04:47;;;;;;;;;;;;;;;4.05;100.00;97081.09;4918634;29;19925;-81
2023/04/12 09:07:13;;;;;;;;;;;;;;;4.05;100.00;97088.09;4931583;29;19950;-83
2023/04/12 09:09:45;;;;;;;;;;;;;;;4.04;100.00;97086.50;4903894;29;20402;-83
2023/04/12 09:12:11;;;;;;;;;;;;;;;4.00;100.00;97095.72;4926700;29;19926;-82
2023/04/12 09:14:37;;;;;;;;;;;;;;;4.03;100.00;97088.28;4930749;29;19923;-82
2023/04/12 09:17:03;;;;;;;;;;;;;;;4.02;100.00;97104.97;4926576;29;19958;-80
2023/04/12 09:19:32;;;;;;;;;;;;;;;4.18;100.00;97117.00;4935400;29;20371;-79
2023/04/12 09:21:58;;;;;;;;;;;;;;;4.17;100.00;97117.19;4923827;29;19966;-83
2023/04/12 09:24:24;;;;;;;;;;;;;;;4.19;100.00;97128.25;4886094;29;19954;-83
2023/04/12 09:27:04;;;;;;;;;;;;;;;4.26;100.00;97123.09;4917896;29;19930;-83
2023/04/12 09:29:30;;;;;;;;;;;;;;;4.40;100.00;97122.22;4934266;29;19919;-83
2023/04/12 09:32:01;;;;;;;;;;;;;;;4.49;100.00;97133.38;4939758;29;19918;-83
2023/04/12 09:34:27;;;;;;;;;;;;;;;4.44;100.00;97133.94;4940914;28;19990;-84
2023/04/12 09:36:52;;;;;;;;;;;;;;;4.45;100.00;97139.97;4927035;29;19925;-83
2023/04/12 09:39:18;;;;;;;;;;;;;;;4.49;100.00;97151.66;4896831;29;19970;-83
2023/04/12 09:41:44;;;;;;;;;;;;;;;4.54;100.00;97138.84;4918554;29;19919;-84
2023/04/12 09:44:26;;;;;;;;;;;;;;;4.56;100.00;97142.09;4938692;29;19925;-84
2023/04/12 09:46:52;;;;;;;;;;;;;;;4.72;100.00;97150.69;4932775;28;19927;-83
2023/04/12 09:49:17;;;;;;;;;;;;;;;4.91;100.00;97149.22;4910075;29;19919;-83
2023/04/12 09:51:50;;;;;;;;;;;;;;;5.08;100.00;97151.56;4909123;29;20287;-84
2023/04/12 09:54:16;;;;;;;;;;;;;;;5.16;100.00;97167.13;4918771;29;19919;-82
2023/04/12 09:56:43;;;;;;;;;;;;;;;5.22;100.00;97155.88;4923478;29;19954;-84
2023/04/12 09:59:09;;;;;;;;;;;;;;;5.38;100.00;97156.59;4941873;28;19930;-83
2023/04/12 10:01:37;;;;;;;;;;;;;;;5.51;100.00;97166.31;4928555;29;19922;-83
2023/04/12 10:04:04;;;;;;;;;;;;;;;5.62;100.00;97164.16;4919666;29;19922;-83
2023/04/12 10:06:31;;;;;;;;;;;;;;;5.74;100.00;97160.00;4934254;29;19922;-84
2023/04/12 10:08:57;;;;;;;;;;;;;;;5.77;100.00;97172.72;4925525;29;19990;-83
2023/04/12 10:11:24;;;;;;;;;;;;;;;5.64;100.00;97170.81;4914203;29;19919;-83
2023/04/12 10:13:50;;;;;;;;;;;;;;;5.64;100.00;97178.69;4938988;28;19946;-84
2023/04/12 10:16:17;;;;;;;;;;;;;;;5.69;100.00;97183.34;4927491;29;20206;-83
2023/04/12 10:18:44;;;;;;;;;;;;;;;5.68;100.00;97177.31;4925694;29;19927;-83
2023/04/12 10:21:10;;;;;;;;;;;;;;;5.66;100.00;97178.50;4905168;29;20351;-84
2023/04/12 10:23:36;;;;;;;;;;;;;;;5.62;100.00;97183.34;4932410;29;19926;-84
2023/04/12 10:26:03;;;;;;;;;;;;;;;5.55;100.00;97185.91;4937307;29;19923;-83
2023/04/12 10:28:31;;;;;;;;;;;;;;;5.54;100.00;97189.50;4908590;29;19923;-84
2023/04/12 10:30:57;;;;;;;;;;;;;;;5.56;100.00;97191.94;4932632;29;19978;-84
2023/04/12 10:33:26;;;;;;;;;;;;;;;5.66;100.00;97196.84;4943141;28;19930;-84
2023/04/12 10:35:54;;;;;;;;;;;;;;;5.79;100.00;97191.69;4932820;29;19930;-84
2023/04/12 10:38:20;;;;;;;;;;;;;;;5.78;100.00;97195.28;4916834;29;19929;-84
2023/04/12 10:41:04;;;;;;;;;;;;;;;5.78;100.00;97203.16;4904396;29;19918;-84
2023/04/12 10:43:30;;;;;;;;;;;;;;;5.83;100.00;97200.75;4930399;29;19919;-84
2023/04/12 10:45:56;;;;;;;;;;;;;;;5.79;100.00;97201.34;4923085;29;19950;-83
2023/04/12 10:48:28;;;;;;;;;;;;;;;5.73;100.00;97216.03;4919808;29;20138;-83
2023/04/12 10:51:16;;;;;;;;;;;;;;;5.78;100.00;97212.84;4924565;29;20018;-82
2023/04/12 10:53:42;;;;;;;;;;;;;;;5.76;100.00;97222.69;4936825;29;19922;-83
2023/04/12 10:56:30;;;;;;;;;;;;;;;5.80;100.00;97232.59;4919517;29;19919;-83
2023/04/12 10:59:01;;;;;;;;;;;;;;;5.75;100.00;97236.81;4934243;28;19958;-84
2023/04/12 11:01:39;;;;;;;;;;;;;;;5.73;100.00;97244.06;4905491;29;19926;-80
2023/04/12 11:04:05;;;;;;;;;;;;;;;5.69;100.00;97246.25;4930112;29;19927;-80
2023/04/12 11:06:41;;;;;;;;;;;;;;;5.65;100.00;97253.69;4927158;29;19978;-84
2023/04/12 11:09:29;;;;;;;;;;;;;;;5.72;100.00;97258.97;4904640;29;20670;-84
2023/04/12 11:11:56;;;;;;;;;;;;;;;5.75;100.00;97257.78;4912363;29;19929;-84
2023/04/12 11:14:27;;;;;;;;;;;;;;;5.69;100.00;97269.81;4927011;29;19929;-84
2023/04/12 11:17:13;;;;;;;;;;;;;;;5.64;100.00;97273.03;4920451;29;20006;-83
2023/04/12 11:19:43;;;;;;;;;;;;;;;5.55;100.00;97280.22;4925539;29;19923;-83
2023/04/12 11:22:10;;;;;;;;;;;;;;;5.45;100.00;97288.41;4920080;29;19955;-80
2023/04/12 11:24:39;;;;;;;;;;;;;;;5.33;100.00;97275.03;4921349;29;19959;-80
2023/04/12 11:27:04;;;;;;;;;;;;;;;5.33;100.00;97284.69;4887537;29;20281;-83
2023/04/12 11:29:33;;;;;;;;;;;;;;;5.30;100.00;97272.75;4917772;29;19994;-83
2023/04/12 11:32:01;;;;;;;;;;;;;;;5.30;100.00;97280.63;4913195;29;19969;-83
2023/04/12 11:34:30;;;;;;;;;;;;;;;5.28;100.00;97287.88;4911404;29;20033;-83
2023/04/12 11:36:57;;;;;;;;;;;;;;;5.33;100.00;97288.13;4914238;29;19954;-84
2023/04/12 11:39:24;;;;;;;;;;;;;;;5.37;100.00;97290.38;4906468;29;19919;-84
2023/04/12 11:41:51;;;;;;;;;;;;;;;5.32;100.00;97276.00;4899801;29;19927;-84
2023/04/12 11:44:18;;;;;;;;;;;;;;;5.26;100.00;97289.03;4915596;29;19933;-83
2023/04/12 11:46:47;;;;;;;;;;;;;;;5.24;100.00;97297.09;4902376;29;19974;-83
2023/04/12 11:49:16;;;;;;;;;;;;;;;5.23;100.00;97300.72;4929678;29;19919;-83
2023/04/12 11:51:44;;;;;;;;;;;;;;;5.07;100.00;97320.09;4926483;29;20295;-80
2023/04/12 11:54:11;;;;;;;;;;;;;;;4.82;100.00;97330.91;4931376;29;19919;-80
2023/04/12 11:56:40;;;;;;;;;;;;;;;4.56;100.00;97346.13;4906443;29;20354;-82
2023/04/12 11:59:06;;;;;;;;;;;;;;;4.33;100.00;97354.88;4911595;29;19998;-82
2023/04/12 12:01:36;;;;;;;;;;;;;;;4.21;100.00;97356.31;4924323;29;20303;-82
2023/04/12 12:04:02;;;;;;;;;;;;;;;4.09;100.00;97356.75;4897565;29;20578;-82
2023/04/12 12:06:27;;;;;;;;;;;;;;;4.01;100.00;97363.88;4936821;29;19937;-83
2023/04/12 12:08:54;;;;;;;;;;;;;;;3.96;100.00;97359.19;4910016;29;19919;-82
2023/04/12 12:11:20;;;;;;;;;;;;;;;3.93;100.00;97356.94;4941925;28;20451;-81
2023/04/12 12:13:50;;;;;;;;;;;;;;;3.96;100.00;97354.78;4920560;29;19934;-81
2023/04/12 12:16:16;;;;;;;;;;;;;;;4.01;100.00;97372.56;4897379;29;19933;-82
2023/04/12 12:18:42;;;;;;;;;;;;;;;4.09;100.00;97359.38;4911713;29;20388;-81
2023/04/12 12:21:09;;;;;;;;;;;;;;;4.20;100.00;97355.50;4929472;29;19923;-82
2023/04/12 12:23:35;;;;;;;;;;;;;;;4.31;100.00;97358.69;4931946;29;19934;-82
2023/04/12 12:26:05;;;;;;;;;;;;;;;4.42;100.00;97367.88;4914708;29;19924;-79
2023/04/12 12:28:38;;;;;;;;;;;;;;;4.57;100.00;97360.03;4915403;29;20010;-80
2023/04/12 12:31:09;;;;;;;;;;;;;;;4.71;100.00;97347.91;4928098;29;19918;-83
2023/04/12 12:33:36;;;;;;;;;;;;;;;4.88;100.00;97361.59;4917888;29;19925;-82
2023/04/12 12:36:02;;;;;;;;;;;;;;;5.04;100.00;97371.03;4932843;29;19945;-82
2023/04/12 12:38:39;;;;;;;;;;;;;;;5.22;100.00;97385.50;4925165;29;20376;-81
2023/04/12 12:41:19;;;;;;;;;;;;;;;5.39;100.00;97380.84;4924103;29;20021;-82
2023/04/12 12:43:46;;;;;;;;;;;;;;;5.56;100.00;97389.25;4939668;28;19930;-82
2023/04/12 12:46:11;;;;;;;;;;;;;;;5.71;100.00;97396.25;4922476;29;19925;-82
2023/04/12 12:48:40;;;;;;;;;;;;;;;5.83;100.00;97399.97;4916636;29;20014;-82
2023/04/12 12:51:10;;;;;;;;;;;;;;;5.90;100.00;97400.03;4936504;29;19919;-79